createdAt,value
2019-02-28T00:02:15.048Z,97.20
2019-02-28T00:04:47.528Z,97.40
2019-02-28T00:07:20.125Z,96.70
2019-02-28T00:09:52.816Z,97.00
2019-02-28T00:12:25.644Z,96.80
2019-02-28T00:14:58.619Z,96.90
2019-02-28T00:17:32.168Z,97.00
2019-02-28T00:20:04.839Z,96.70
2019-02-28T00:22:37.256Z,96.90
2019-02-28T00:25:11.597Z,96.50
2019-02-28T00:27:44.094Z,95.90
2019-02-28T00:30:17.846Z,96.30
2019-02-28T00:32:50.495Z,95.60
2019-02-28T00:35:23.048Z,95.30
2019-02-28T00:37:56.694Z,95.20
2019-02-28T00:40:29.616Z,94.90
2019-02-28T00:43:02.143Z,94.50
2019-02-28T00:45:37.222Z,94.90
2019-02-28T00:48:08.692Z,94.60
2019-02-28T00:50:41.449Z,94.30
2019-02-28T00:53:13.725Z,93.70
2019-02-28T00:55:47.007Z,93.80
2019-02-28T00:58:19.470Z,93.40
2019-02-28T01:00:52.509Z,93.20
2019-02-28T01:03:27.424Z,93.20
2019-02-28T01:05:59.044Z,92.80
2019-02-28T01:08:31.782Z,92.20
2019-02-28T01:11:04.278Z,92.30
2019-02-28T01:13:36.884Z,92.00
2019-02-28T01:16:09.395Z,91.70
2019-02-28T01:18:41.957Z,91.30
2019-02-28T01:21:14.350Z,91.30
2019-02-28T01:23:46.723Z,91.30
2019-02-28T01:26:19.355Z,91.00
2019-02-28T01:28:51.839Z,90.90
2019-02-28T01:31:24.355Z,90.90
2019-02-28T01:33:58.759Z,91.00
2019-02-28T01:36:30.838Z,90.60
2019-02-28T01:39:03.166Z,90.50
2019-02-28T01:41:36.971Z,90.60
2019-02-28T01:44:09.500Z,90.30
2019-02-28T01:46:41.843Z,88.60
2019-02-28T01:49:14.279Z,89.10
2019-02-28T01:51:46.813Z,89.30
2019-02-28T01:54:19.581Z,88.20
2019-02-28T01:56:51.852Z,87.40
2019-02-28T01:59:24.489Z,87.90
2019-02-28T02:01:57.076Z,86.70
2019-02-28T02:04:30.211Z,87.60
2019-02-28T02:07:02.965Z,85.60
2019-02-28T02:09:35.784Z,84.10
2019-02-28T02:12:08.343Z,84.30
2019-02-28T02:14:44.528Z,82.60
2019-02-28T02:17:14.487Z,82.10
2019-02-28T02:19:49.342Z,81.20
2019-02-28T02:22:20.806Z,81.80
2019-02-28T02:24:53.218Z,81.90
2019-02-28T02:27:25.511Z,81.40
2019-02-28T02:29:58.141Z,81.00
2019-02-28T02:32:37.507Z,79.60
2019-02-28T02:35:08.563Z,79.60
2019-02-28T02:37:41.484Z,78.10
2019-02-28T02:40:16.647Z,78.50
2019-02-28T02:42:50.126Z,77.60
2019-02-28T02:45:22.850Z,77.90
2019-02-28T02:47:55.611Z,77.50
2019-02-28T02:50:34.021Z,78.00
2019-02-28T02:53:05.578Z,76.30
2019-02-28T02:55:35.741Z,76.10
2019-02-28T02:58:08.605Z,76.60
2019-02-28T03:00:41.049Z,76.30
2019-02-28T03:03:13.796Z,75.00
2019-02-28T03:05:46.184Z,75.70
2019-02-28T03:08:18.739Z,73.70
2019-02-28T03:10:52.973Z,75.00
2019-02-28T03:13:25.507Z,75.10
2019-02-28T03:15:59.292Z,74.40
2019-02-28T03:18:31.936Z,73.80
2019-02-28T03:21:04.436Z,72.40
2019-02-28T03:23:39.818Z,72.80
2019-02-28T03:26:11.125Z,71.00
2019-02-28T03:28:43.528Z,71.30
2019-02-28T03:31:16.060Z,72.10
2019-02-28T03:33:49.647Z,72.40
2019-02-28T03:36:22.421Z,70.10
2019-02-28T03:38:54.921Z,70.00
2019-02-28T03:41:27.483Z,69.60
2019-02-28T03:44:00.059Z,69.20
2019-02-28T03:46:32.399Z,69.60
2019-02-28T03:49:10.955Z,68.40
2019-02-28T03:51:38.933Z,69.80
2019-02-28T03:54:11.315Z,67.50
2019-02-28T03:56:51.357Z,68.20
2019-02-28T03:59:18.959Z,66.00
2019-02-28T04:01:51.673Z,68.80
2019-02-28T04:04:24.282Z,67.40
2019-02-28T04:06:56.940Z,66.50
2019-02-28T04:09:29.578Z,67.30
2019-02-28T04:12:06.979Z,67.40
2019-02-28T04:14:35.797Z,67.40
2019-02-28T04:17:09.897Z,66.40
2019-02-28T04:19:42.377Z,68.40
2019-02-28T04:22:14.922Z,65.60
2019-02-28T04:24:47.736Z,66.10
2019-02-28T04:27:23.093Z,67.80
2019-02-28T04:29:55.356Z,66.00
2019-02-28T04:32:28.087Z,64.70
2019-02-28T04:35:00.497Z,63.10
2019-02-28T04:37:33.754Z,61.90
2019-02-28T04:40:08.239Z,62.50
2019-02-28T04:42:40.990Z,62.60
2019-02-28T04:45:15.366Z,63.00
2019-02-28T04:47:48.504Z,63.00
2019-02-28T04:50:20.884Z,64.20
2019-02-28T04:52:53.294Z,61.70
2019-02-28T04:55:25.670Z,60.70
2019-02-28T04:57:57.928Z,61.00
2019-02-28T05:00:30.624Z,59.80
2019-02-28T05:03:03.143Z,59.40
2019-02-28T05:05:35.473Z,61.60
2019-02-28T05:08:07.771Z,58.80
2019-02-28T05:10:40.568Z,59.30
2019-02-28T05:13:14.301Z,57.20
2019-02-28T05:15:47.162Z,58.40
2019-02-28T05:18:19.657Z,56.70
2019-02-28T05:20:52.331Z,57.00
2019-02-28T05:23:24.562Z,58.00
2019-02-28T05:25:56.957Z,57.90
2019-02-28T05:28:29.521Z,56.90
2019-02-28T05:31:02.081Z,56.20
2019-02-28T05:33:35.199Z,55.50
2019-02-28T05:36:07.676Z,56.10
2019-02-28T05:38:40.279Z,53.80
2019-02-28T05:41:15.382Z,56.70
2019-02-28T05:43:46.521Z,54.70
2019-02-28T05:46:20.360Z,54.10
2019-02-28T05:48:53.563Z,52.90
2019-02-28T05:51:26.069Z,49.80
2019-02-28T05:53:58.271Z,52.80
2019-02-28T05:56:33.130Z,51.40
2019-02-28T05:59:04.396Z,51.00
2019-02-28T06:01:36.835Z,51.90
2019-02-28T06:04:09.465Z,52.00
2019-02-28T06:06:41.959Z,52.00
2019-02-28T06:09:14.810Z,53.70
2019-02-28T06:11:47.066Z,53.10
2019-02-28T06:14:19.622Z,53.40
2019-02-28T06:16:52.439Z,52.10
2019-02-28T06:19:24.741Z,52.40
2019-02-28T06:21:59.519Z,53.00
2019-02-28T06:24:31.112Z,53.70
2019-02-28T06:27:06.324Z,52.50
2019-02-28T06:29:37.801Z,52.10
2019-02-28T06:32:10.256Z,52.00
2019-02-28T06:34:43.074Z,50.40
2019-02-28T06:37:15.908Z,49.50
2019-02-28T06:39:48.687Z,49.60
2019-02-28T06:42:21.047Z,50.20
2019-02-28T06:44:53.340Z,50.80
2019-02-28T06:47:26.038Z,50.10
2019-02-28T06:49:58.679Z,52.10
2019-02-28T06:52:31.096Z,51.80
2019-02-28T06:55:03.587Z,51.50
2019-02-28T06:57:36.037Z,53.70
2019-02-28T07:00:13.329Z,54.90
2019-02-28T07:02:44.536Z,51.20
2019-02-28T07:05:17.625Z,48.30
2019-02-28T07:07:50.346Z,48.60
2019-02-28T07:10:22.794Z,47.80
2019-02-28T07:12:55.192Z,48.30
2019-02-28T07:15:27.669Z,49.00
2019-02-28T07:18:00.403Z,50.40
2019-02-28T07:20:35.077Z,50.90
2019-02-28T07:23:08.259Z,48.70
2019-02-28T07:25:40.655Z,47.20
2019-02-28T07:28:13.058Z,46.50
2019-02-28T07:30:46.103Z,44.30
2019-02-28T07:33:18.674Z,46.80
2019-02-28T07:35:51.026Z,44.00
2019-02-28T07:38:25.641Z,46.20
2019-02-28T07:40:57.255Z,44.70
2019-02-28T07:43:29.930Z,43.30
2019-02-28T07:46:04.522Z,47.10
2019-02-28T07:48:36.099Z,47.20
2019-02-28T07:51:08.633Z,46.10
2019-02-28T07:53:41.980Z,47.90
2019-02-28T07:56:14.380Z,46.50
2019-02-28T07:58:46.795Z,45.30
2019-02-28T08:01:31.811Z,45.60
2019-02-28T08:04:04.310Z,44.30
2019-02-28T08:06:39.202Z,43.00
2019-02-28T08:09:23.759Z,43.80
2019-02-28T08:11:56.742Z,43.80
2019-02-28T08:14:29.726Z,44.30
2019-02-28T08:17:05.406Z,42.80
2019-02-28T08:19:36.336Z,43.70
2019-02-28T08:22:08.689Z,42.20
2019-02-28T08:24:41.145Z,41.90
2019-02-28T08:27:13.261Z,41.30
2019-02-28T08:29:46.213Z,43.10
2019-02-28T08:32:18.890Z,41.60
2019-02-28T08:34:51.354Z,42.10
2019-02-28T08:37:36.195Z,41.60
2019-02-28T08:40:12.580Z,43.30
2019-02-28T08:42:45.118Z,41.90
2019-02-28T08:45:18.276Z,42.50
2019-02-28T08:47:55.283Z,42.50
2019-02-28T08:50:26.255Z,42.90
2019-02-28T08:53:01.391Z,43.70
2019-02-28T08:55:33.751Z,42.30
2019-02-28T08:58:06.781Z,43.40
2019-02-28T09:00:58.353Z,41.90
2019-02-28T09:03:30.985Z,41.20
2019-02-28T09:06:04.189Z,42.70
2019-02-28T09:08:37.180Z,43.10
2019-02-28T09:11:11.109Z,42.00
2019-02-28T09:13:44.791Z,41.70
2019-02-28T09:16:18.260Z,42.60
2019-02-28T09:18:50.867Z,42.10
2019-02-28T09:21:23.349Z,43.00
2019-02-28T09:24:09.472Z,42.80
2019-02-28T09:26:42.260Z,42.50
2019-02-28T09:29:15.160Z,43.10
2019-02-28T09:31:47.598Z,41.70
2019-02-28T09:34:20.767Z,43.60
2019-02-28T09:36:56.661Z,43.80
2019-02-28T09:39:28.016Z,43.90
2019-02-28T09:42:00.440Z,43.60
2019-02-28T09:44:33.274Z,43.70
2019-02-28T09:47:06.656Z,43.50
2019-02-28T09:49:38.960Z,43.90
2019-02-28T09:52:11.171Z,44.30
2019-02-28T09:54:44.213Z,43.70
2019-02-28T09:57:18.998Z,44.40
2019-02-28T09:59:50.289Z,45.00
2019-02-28T10:02:23.482Z,44.00
2019-02-28T10:04:55.644Z,46.30
2019-02-28T10:07:28.103Z,45.90
2019-02-28T10:10:01.376Z,45.80
2019-02-28T10:12:34.477Z,45.10
2019-02-28T10:15:09.069Z,45.60
2019-02-28T10:17:54.904Z,46.00
2019-02-28T10:20:29.666Z,46.60
2019-02-28T10:23:15.121Z,47.30
2019-02-28T10:25:47.869Z,47.50
2019-02-28T10:28:20.555Z,48.00
2019-02-28T10:30:52.977Z,48.00
2019-02-28T10:33:25.529Z,48.40
2019-02-28T10:35:58.362Z,49.00
2019-02-28T10:38:33.050Z,48.80
2019-02-28T10:41:04.550Z,49.10
2019-02-28T10:43:37.202Z,50.50
2019-02-28T10:46:09.831Z,51.00
2019-02-28T10:48:50.761Z,53.60
2019-02-28T10:51:16.540Z,52.30
2019-02-28T10:53:49.035Z,52.90
2019-02-28T10:56:21.424Z,53.70
2019-02-28T10:58:54.472Z,54.10
2019-02-28T11:01:26.955Z,54.60
2019-02-28T11:04:00.328Z,54.90
2019-02-28T11:06:34.186Z,56.60
2019-02-28T11:09:06.987Z,55.50
2019-02-28T11:11:42.446Z,55.60
2019-02-28T11:14:13.113Z,56.60
2019-02-28T11:16:45.885Z,58.60
2019-02-28T11:19:19.471Z,59.80
2019-02-28T11:21:52.365Z,59.30
2019-02-28T11:24:27.070Z,60.90
2019-02-28T11:26:59.585Z,59.80
2019-02-28T11:29:35.147Z,59.90
2019-02-28T11:32:05.995Z,60.00
2019-02-28T11:34:38.564Z,59.40
2019-02-28T11:37:12.750Z,58.50
2019-02-28T11:39:44.839Z,58.30
2019-02-28T11:42:17.217Z,59.00
2019-02-28T11:44:49.961Z,58.60
2019-02-28T11:47:23.327Z,58.40
2019-02-28T11:49:56.210Z,59.70
2019-02-28T11:52:28.500Z,60.50
2019-02-28T11:55:01.147Z,61.90
2019-02-28T11:57:33.923Z,63.70
2019-02-28T12:00:08.689Z,61.40
2019-02-28T12:02:41.666Z,61.60
2019-02-28T12:05:15.618Z,61.80
2019-02-28T12:07:47.904Z,63.40
2019-02-28T12:10:20.534Z,64.80
2019-02-28T12:12:53.039Z,65.80
2019-02-28T12:15:28.420Z,66.90
2019-02-28T12:18:04.757Z,68.20
2019-02-28T12:20:34.976Z,68.90
2019-02-28T12:23:08.294Z,70.00
2019-02-28T12:25:42.790Z,68.90
2019-02-28T12:28:14.664Z,66.80
2019-02-28T12:30:47.576Z,68.40
2019-02-28T12:33:23.200Z,68.30
2019-02-28T12:35:54.769Z,68.90
2019-02-28T12:38:29.154Z,70.40
2019-02-28T12:41:01.258Z,72.10
2019-02-28T12:43:33.588Z,69.80
2019-02-28T12:46:06.265Z,72.40
2019-02-28T12:48:38.858Z,70.00
2019-02-28T12:51:11.438Z,71.00
2019-02-28T12:53:44.017Z,70.30
2019-02-28T12:56:16.758Z,69.80
2019-02-28T12:58:49.112Z,68.90
2019-02-28T13:01:22.476Z,69.30
2019-02-28T13:04:00.317Z,70.70
2019-02-28T13:06:29.490Z,71.00
2019-02-28T13:09:02.138Z,70.80
2019-02-28T13:11:36.562Z,70.80
2019-02-28T13:14:08.762Z,71.60
2019-02-28T13:16:41.229Z,71.10
2019-02-28T13:19:16.459Z,70.40
2019-02-28T13:21:47.870Z,70.30
2019-02-28T13:24:20.239Z,70.60
2019-02-28T13:26:53.993Z,70.20
2019-02-28T13:29:28.831Z,70.20
2019-02-28T13:32:01.420Z,70.70
2019-02-28T13:34:34.818Z,70.10
2019-02-28T13:37:07.161Z,70.70
2019-02-28T13:39:39.940Z,71.20
2019-02-28T13:42:12.225Z,71.20
2019-02-28T13:44:44.636Z,72.20
2019-02-28T13:47:17.406Z,72.20
2019-02-28T13:49:50.613Z,72.30
2019-02-28T13:52:23.453Z,71.40
2019-02-28T13:54:55.756Z,71.60
2019-02-28T13:57:28.621Z,71.00
2019-02-28T14:00:01.064Z,72.00
2019-02-28T14:02:34.012Z,72.20
2019-02-28T14:05:08.036Z,72.70
2019-02-28T14:07:40.734Z,73.60
2019-02-28T14:10:15.200Z,74.60
2019-02-28T14:12:48.045Z,75.40
2019-02-28T14:15:24.947Z,75.10
2019-02-28T14:17:57.056Z,75.50
2019-02-28T14:20:30.021Z,75.00
2019-02-28T14:23:02.677Z,75.10
2019-02-28T14:25:36.358Z,73.60
2019-02-28T14:28:09.694Z,74.70
2019-02-28T14:30:42.796Z,75.30
2019-02-28T14:33:19.184Z,75.50
2019-02-28T14:35:50.453Z,75.90
2019-02-28T14:38:23.592Z,75.30
2019-02-28T14:40:56.072Z,75.60
2019-02-28T14:43:29.073Z,75.90
2019-02-28T14:46:02.312Z,76.70
2019-02-28T14:48:36.598Z,76.50
2019-02-28T14:51:09.372Z,78.70
2019-02-28T14:53:42.071Z,78.60
2019-02-28T14:56:14.717Z,78.20
2019-02-28T14:58:47.214Z,77.80
2019-02-28T15:01:20.584Z,79.00
2019-02-28T15:03:56.285Z,78.20
2019-02-28T15:06:29.590Z,78.30
2019-02-28T15:09:03.180Z,79.00
2019-02-28T15:11:37.804Z,81.00
2019-02-28T15:14:10.461Z,80.10
2019-02-28T15:16:43.240Z,80.30
2019-02-28T15:19:15.963Z,80.40
2019-02-28T15:21:48.933Z,80.60
2019-02-28T15:24:21.934Z,81.20
2019-02-28T15:26:55.026Z,81.40
2019-02-28T15:29:27.771Z,81.50
2019-02-28T15:32:00.466Z,81.70
2019-02-28T15:34:33.325Z,82.00
2019-02-28T15:37:06.454Z,82.00
2019-02-28T15:39:40.132Z,83.20
2019-02-28T15:42:13.369Z,82.50
2019-02-28T15:45:00.315Z,82.30
2019-02-28T15:47:33.490Z,82.20
2019-02-28T15:50:08.467Z,82.10
2019-02-28T15:52:41.181Z,83.00
2019-02-28T15:55:26.523Z,82.30
2019-02-28T15:57:59.247Z,82.70
2019-02-28T16:00:33.583Z,82.80
2019-02-28T16:03:06.503Z,82.60
2019-02-28T16:05:42.987Z,82.40
2019-02-28T16:08:13.305Z,82.50
2019-02-28T16:10:53.347Z,83.60
2019-02-28T16:13:22.740Z,84.60
2019-02-28T16:15:53.689Z,83.90
2019-02-28T16:18:26.344Z,83.90
2019-02-28T16:20:58.657Z,85.50
2019-02-28T16:23:31.602Z,85.30
2019-02-28T16:26:04.366Z,85.10
2019-02-28T16:28:39.539Z,85.10
2019-02-28T16:31:10.663Z,85.80
2019-02-28T16:33:43.097Z,87.00
2019-02-28T16:36:15.960Z,86.60
2019-02-28T16:38:48.883Z,86.70
2019-02-28T16:41:22.511Z,86.30
2019-02-28T16:43:57.165Z,86.50
2019-02-28T16:46:30.249Z,85.60
2019-02-28T16:49:03.004Z,85.70
2019-02-28T16:51:35.910Z,89.10
2019-02-28T16:54:09.126Z,89.10
2019-02-28T16:56:41.564Z,89.90
2019-02-28T16:59:14.015Z,90.10
2019-02-28T17:01:46.414Z,89.60
2019-02-28T17:04:18.712Z,87.00
2019-02-28T17:06:51.238Z,87.60
2019-02-28T17:09:26.702Z,87.80
2019-02-28T17:12:00.799Z,87.90
2019-02-28T17:14:34.761Z,88.00
2019-02-28T17:17:11.892Z,85.80
2019-02-28T17:19:42.706Z,81.60
2019-02-28T17:22:15.668Z,81.80
2019-02-28T17:24:48.189Z,82.00
2019-02-28T17:27:22.049Z,83.40
2019-02-28T17:29:57.629Z,83.90
2019-02-28T17:32:31.338Z,82.70
2019-02-28T17:35:03.535Z,82.60
2019-02-28T17:37:36.039Z,82.00
2019-02-28T17:40:10.604Z,83.20
2019-02-28T17:42:46.415Z,82.60
2019-02-28T17:45:21.132Z,82.30
2019-02-28T17:47:56.291Z,83.00
2019-02-28T17:50:31.325Z,84.70
2019-02-28T17:53:07.093Z,85.00
2019-02-28T17:55:42.265Z,85.00
2019-02-28T17:58:17.444Z,85.60
2019-02-28T18:00:53.605Z,84.10
2019-02-28T18:03:28.957Z,84.40
2019-02-28T18:06:04.717Z,84.10
2019-02-28T18:08:39.539Z,85.20
2019-02-28T18:11:14.131Z,85.40
2019-02-28T18:13:52.112Z,86.80
2019-02-28T18:16:25.579Z,88.20
2019-02-28T18:19:00.003Z,88.00
2019-02-28T18:21:37.587Z,88.20
2019-02-28T18:24:10.529Z,88.60
2019-02-28T18:26:45.343Z,87.80
2019-02-28T18:29:20.536Z,87.90
2019-02-28T18:31:53.900Z,88.30
2019-02-28T18:34:26.879Z,87.90
2019-02-28T18:36:59.681Z,88.50
2019-02-28T18:39:31.971Z,89.40
2019-02-28T18:42:04.390Z,89.60
2019-02-28T18:44:37.471Z,89.70
2019-02-28T18:47:10.461Z,90.00
2019-02-28T18:49:42.910Z,90.30
2019-02-28T18:52:15.627Z,90.60
2019-02-28T18:54:48.280Z,90.90
2019-02-28T18:57:20.733Z,91.10
2019-02-28T18:59:54.679Z,91.10
2019-02-28T19:02:27.215Z,90.90
2019-02-28T19:05:00.046Z,90.90
2019-02-28T19:07:32.571Z,91.90
2019-02-28T19:10:06.302Z,91.70
2019-02-28T19:12:38.940Z,91.50
2019-02-28T19:15:13.567Z,92.20
2019-02-28T19:17:46.960Z,91.40
2019-02-28T19:20:19.808Z,91.40
2019-02-28T19:22:52.329Z,91.60
2019-02-28T19:25:24.750Z,91.70
2019-02-28T19:27:57.291Z,92.20
2019-02-28T19:30:30.010Z,91.80
2019-02-28T19:33:02.643Z,92.00
2019-02-28T19:35:35.160Z,92.10
2019-02-28T19:38:07.784Z,91.90
2019-02-28T19:40:40.306Z,92.30
2019-02-28T19:43:15.960Z,92.70
2019-02-28T19:45:50.656Z,92.30
2019-02-28T19:48:23.435Z,92.90
2019-02-28T19:50:55.847Z,93.80
2019-02-28T19:53:28.439Z,92.80
2019-02-28T19:56:00.860Z,92.20
2019-02-28T19:58:33.448Z,91.80
2019-02-28T20:01:05.966Z,91.80
2019-02-28T20:03:38.282Z,92.30
2019-02-28T20:06:10.604Z,92.60
2019-02-28T20:08:43.347Z,93.30
2019-02-28T20:11:15.993Z,91.70
2019-02-28T20:13:49.151Z,91.80
2019-02-28T20:16:21.686Z,91.50
2019-02-28T20:18:54.025Z,91.60
2019-02-28T20:21:26.670Z,91.70
2019-02-28T20:23:59.035Z,91.90
2019-02-28T20:26:31.543Z,92.30
2019-02-28T20:29:03.965Z,92.40
2019-02-28T20:31:36.684Z,92.70
2019-02-28T20:34:09.095Z,93.10
2019-02-28T20:36:42.204Z,93.30
2019-02-28T20:39:14.959Z,93.60
2019-02-28T20:41:47.714Z,93.50
2019-02-28T20:44:20.140Z,93.80
2019-02-28T20:46:52.863Z,93.90
2019-02-28T20:49:26.629Z,94.20
2019-02-28T20:51:59.158Z,94.30
2019-02-28T20:54:31.449Z,94.60
2019-02-28T20:57:03.936Z,94.60
2019-02-28T20:59:37.396Z,95.20
2019-02-28T21:02:10.146Z,94.80
2019-02-28T21:04:43.255Z,94.90
2019-02-28T21:07:17.438Z,94.70
2019-02-28T21:09:50.129Z,94.80
2019-02-28T21:12:22.791Z,94.70
2019-02-28T21:14:55.894Z,94.50
2019-02-28T21:17:29.571Z,94.80
2019-02-28T21:20:02.416Z,95.10
2019-02-28T21:22:35.707Z,95.00
2019-02-28T21:25:10.519Z,95.20
2019-02-28T21:27:42.922Z,95.20
2019-02-28T21:30:18.106Z,95.20
2019-02-28T21:32:50.684Z,95.40
2019-02-28T21:35:24.163Z,95.50
2019-02-28T21:37:57.703Z,95.10
2019-02-28T21:40:30.513Z,95.20
2019-02-28T21:43:03.314Z,95.00
2019-02-28T21:45:35.702Z,95.00
2019-02-28T21:48:08.608Z,94.90
2019-02-28T21:50:41.826Z,94.80
2019-02-28T21:53:14.923Z,94.90
2019-02-28T21:55:47.494Z,95.10
2019-02-28T21:58:20.054Z,95.10
2019-02-28T22:00:52.670Z,95.40
2019-02-28T22:03:25.035Z,95.50
2019-02-28T22:05:57.660Z,95.60
2019-02-28T22:08:30.586Z,95.80
2019-02-28T22:11:02.931Z,95.50
2019-02-28T22:13:35.571Z,95.40
2019-02-28T22:16:07.922Z,95.20
2019-02-28T22:18:40.671Z,95.00
2019-02-28T22:21:13.355Z,95.10
2019-02-28T22:23:45.790Z,95.40
2019-02-28T22:26:18.240Z,95.70
2019-02-28T22:28:50.975Z,96.10
2019-02-28T22:31:26.691Z,95.80
2019-02-28T22:34:00.383Z,95.50
2019-02-28T22:36:36.504Z,95.70
2019-02-28T22:39:10.866Z,95.80
2019-02-28T22:41:43.326Z,95.60
2019-02-28T22:44:16.001Z,95.50
2019-02-28T22:46:48.567Z,95.60
2019-02-28T22:49:21.278Z,96.00
2019-02-28T22:51:53.562Z,96.00
2019-02-28T22:54:26.146Z,96.50
2019-02-28T22:56:58.489Z,96.20
2019-02-28T22:59:30.957Z,96.00
2019-02-28T23:02:03.464Z,95.80
2019-02-28T23:04:36.280Z,95.80
2019-02-28T23:07:08.704Z,96.00
2019-02-28T23:09:42.759Z,96.10
2019-02-28T23:12:14.881Z,96.10
2019-02-28T23:14:47.346Z,96.00
2019-02-28T23:17:19.987Z,96.40
2019-02-28T23:19:52.514Z,96.50
2019-02-28T23:22:25.283Z,96.40
2019-02-28T23:24:57.678Z,96.50
2019-02-28T23:27:30.414Z,97.00
2019-02-28T23:30:05.013Z,97.40
2019-02-28T23:32:40.023Z,97.30
2019-02-28T23:35:15.085Z,96.70
2019-02-28T23:37:47.665Z,97.30
2019-02-28T23:40:20.310Z,98.30
2019-02-28T23:42:52.950Z,97.90
2019-02-28T23:45:25.511Z,97.90
2019-02-28T23:47:58.253Z,97.30
2019-02-28T23:50:30.557Z,97.10
2019-02-28T23:53:02.987Z,97.60
2019-02-28T23:55:35.354Z,97.40
2019-02-28T23:58:08.155Z,97.10
